logo
Search for airport 
image banner adimage banner adimage banner ad
image banner ad

FASC - Secunda

Located in Secunda, South Africa

ICAO - FASC, IATA - ZEC

Data provided by Airmate  

General information

Coordinates: S26°31'14" E29°10'20"
Elevation is 5250 feet MSL.
Magnetic variation is -20° East
Rated:
View ratings:
[VIEW]
View others Airports in Mpumalanga

Operational data

Special qualification required
Current time UTC:
Current local time:
Weather at : - ( 0 km )
METAR: KUNV 281953Z 30009KT 10SM BKN032 21/14 A2984
View NOTAMs / SUP AIP / TFR affecting this airport [VIEW]
Communications frequencies: [VIEW]

Runways:

RWY identifierQFULength (ft)Width (ft)SurfaceLDA (ft)
1190°354541ASPH3609
29270°354541ASPH3609

Airport contact information

Address: Secunda South Africa

Other aviation service providers

Flight schools

Aviation Junction Flying School

Aviation Junction Flying School

Satellite view of FASC